sensor_id;sensor_type;location;lat;lon;timestamp;pressure;altitude;pressure_sealevel;temperature;humidity
9059;BME280;4564;42.034;25.834;2023-05-08T00:01:23;100511.03;;;12.10;79.99
9059;BME280;4564;42.034;25.834;2023-05-08T00:03:50;100504.50;;;12.05;80.34
9059;BME280;4564;42.034;25.834;2023-05-08T00:06:16;100507.16;;;11.98;80.55
9059;BME280;4564;42.034;25.834;2023-05-08T00:08:43;100507.91;;;11.92;81.49
9059;BME280;4564;42.034;25.834;2023-05-08T00:11:09;100506.09;;;11.99;81.94
9059;BME280;4564;42.034;25.834;2023-05-08T00:13:37;100501.25;;;11.95;80.14
9059;BME280;4564;42.034;25.834;2023-05-08T00:16:05;100502.09;;;11.95;78.85
9059;BME280;4564;42.034;25.834;2023-05-08T00:18:33;100493.25;;;11.93;79.80
9059;BME280;4564;42.034;25.834;2023-05-08T00:21:00;100498.44;;;11.88;80.84
9059;BME280;4564;42.034;25.834;2023-05-08T00:23:26;100500.44;;;11.80;83.89
9059;BME280;4564;42.034;25.834;2023-05-08T00:25:53;100500.81;;;11.76;84.90
9059;BME280;4564;42.034;25.834;2023-05-08T00:28:20;100496.75;;;11.72;85.85
9059;BME280;4564;42.034;25.834;2023-05-08T00:30:48;100505.59;;;11.74;86.58
9059;BME280;4564;42.034;25.834;2023-05-08T00:33:14;100497.13;;;11.69;86.81
9059;BME280;4564;42.034;25.834;2023-05-08T00:35:41;100502.56;;;11.69;87.14
9059;BME280;4564;42.034;25.834;2023-05-08T00:38:08;100496.28;;;11.69;86.89
9059;BME280;4564;42.034;25.834;2023-05-08T00:40:34;100493.56;;;11.69;86.59
9059;BME280;4564;42.034;25.834;2023-05-08T00:43:01;100494.59;;;11.68;85.73
9059;BME280;4564;42.034;25.834;2023-05-08T00:45:31;100490.66;;;11.70;85.66
9059;BME280;4564;42.034;25.834;2023-05-08T00:47:59;100501.34;;;11.72;85.47
9059;BME280;4564;42.034;25.834;2023-05-08T00:50:26;100500.03;;;11.68;85.26
9059;BME280;4564;42.034;25.834;2023-05-08T00:52:53;100501.19;;;11.59;83.81
9059;BME280;4564;42.034;25.834;2023-05-08T00:55:21;100503.31;;;11.63;83.12
9059;BME280;4564;42.034;25.834;2023-05-08T00:57:47;100499.75;;;11.63;82.30
9059;BME280;4564;42.034;25.834;2023-05-08T01:00:14;100502.88;;;11.60;81.90
9059;BME280;4564;42.034;25.834;2023-05-08T01:02:42;100502.00;;;11.45;81.48
9059;BME280;4564;42.034;25.834;2023-05-08T01:05:10;100501.19;;;11.44;81.97
9059;BME280;4564;42.034;25.834;2023-05-08T01:07:37;100492.00;;;11.30;82.90
9059;BME280;4564;42.034;25.834;2023-05-08T01:10:04;100489.56;;;11.35;83.47
9059;BME280;4564;42.034;25.834;2023-05-08T01:12:33;100495.09;;;11.42;84.06
9059;BME280;4564;42.034;25.834;2023-05-08T01:15:07;100493.09;;;11.51;84.00
9059;BME280;4564;42.034;25.834;2023-05-08T01:17:42;100494.25;;;11.42;83.95
9059;BME280;4564;42.034;25.834;2023-05-08T01:20:18;100494.91;;;11.44;85.48
9059;BME280;4564;42.034;25.834;2023-05-08T01:28:37;100498.94;;;11.33;87.37
9059;BME280;4564;42.034;25.834;2023-05-08T01:31:11;100507.09;;;11.33;88.43
9059;BME280;4564;42.034;25.834;2023-05-08T01:33:43;100511.69;;;11.32;89.30
9059;BME280;4564;42.034;25.834;2023-05-08T01:36:16;100512.03;;;11.29;89.79
9059;BME280;4564;42.034;25.834;2023-05-08T01:38:47;100505.47;;;11.24;90.54
9059;BME280;4564;42.034;25.834;2023-05-08T01:41:17;100511.69;;;11.32;90.72
9059;BME280;4564;42.034;25.834;2023-05-08T01:43:49;100501.72;;;11.40;90.72
9059;BME280;4564;42.034;25.834;2023-05-08T01:46:19;100509.53;;;11.43;89.01
9059;BME280;4564;42.034;25.834;2023-05-08T01:48:50;100507.16;;;11.40;85.47
9059;BME280;4564;42.034;25.834;2023-05-08T01:51:20;100504.72;;;11.45;86.66
9059;BME280;4564;42.034;25.834;2023-05-08T01:53:48;100504.81;;;11.51;86.19
9059;BME280;4564;42.034;25.834;2023-05-08T01:56:18;100510.94;;;11.53;87.52
9059;BME280;4564;42.034;25.834;2023-05-08T01:58:46;100508.00;;;11.40;87.54
9059;BME280;4564;42.034;25.834;2023-05-08T02:01:14;100506.25;;;11.32;87.78
9059;BME280;4564;42.034;25.834;2023-05-08T02:03:43;100514.28;;;11.26;88.15
9059;BME280;4564;42.034;25.834;2023-05-08T02:06:12;100517.38;;;11.23;88.74
9059;BME280;4564;42.034;25.834;2023-05-08T02:08:40;100510.53;;;11.12;89.67
9059;BME280;4564;42.034;25.834;2023-05-08T02:11:09;100505.47;;;11.09;89.86
9059;BME280;4564;42.034;25.834;2023-05-08T02:13:38;100512.94;;;11.07;89.53
9059;BME280;4564;42.034;25.834;2023-05-08T02:16:05;100507.53;;;11.07;90.16
9059;BME280;4564;42.034;25.834;2023-05-08T02:18:33;100511.19;;;11.00;89.74
9059;BME280;4564;42.034;25.834;2023-05-08T02:21:01;100510.22;;;10.92;90.31
9059;BME280;4564;42.034;25.834;2023-05-08T02:23:29;100509.75;;;10.89;90.96
9059;BME280;4564;42.034;25.834;2023-05-08T02:25:56;100513.56;;;10.80;90.07
9059;BME280;4564;42.034;25.834;2023-05-08T02:28:23;100511.16;;;10.85;87.97
9059;BME280;4564;42.034;25.834;2023-05-08T02:30:50;100510.47;;;10.83;86.96
9059;BME280;4564;42.034;25.834;2023-05-08T02:33:17;100519.81;;;10.80;85.68
9059;BME280;4564;42.034;25.834;2023-05-08T02:35:45;100513.88;;;10.85;85.52
9059;BME280;4564;42.034;25.834;2023-05-08T02:38:13;100521.34;;;10.83;86.26
9059;BME280;4564;42.034;25.834;2023-05-08T02:40:43;100498.84;;;10.74;88.21
9059;BME280;4564;42.034;25.834;2023-05-08T02:43:11;100500.06;;;10.72;88.93
9059;BME280;4564;42.034;25.834;2023-05-08T02:45:38;100493.88;;;10.63;89.47
9059;BME280;4564;42.034;25.834;2023-05-08T02:48:08;100491.03;;;10.57;90.05
9059;BME280;4564;42.034;25.834;2023-05-08T02:50:36;100494.22;;;10.60;90.20
9059;BME280;4564;42.034;25.834;2023-05-08T02:53:05;100492.06;;;10.56;89.84
9059;BME280;4564;42.034;25.834;2023-05-08T02:55:34;100494.09;;;10.53;89.05
9059;BME280;4564;42.034;25.834;2023-05-08T02:58:09;100498.22;;;10.49;88.34
9059;BME280;4564;42.034;25.834;2023-05-08T03:00:39;100496.31;;;10.35;87.60
9059;BME280;4564;42.034;25.834;2023-05-08T03:03:10;100495.59;;;10.41;87.74
9059;BME280;4564;42.034;25.834;2023-05-08T03:05:38;100490.19;;;10.33;87.52
9059;BME280;4564;42.034;25.834;2023-05-08T03:08:10;100493.50;;;10.43;87.28
9059;BME280;4564;42.034;25.834;2023-05-08T03:10:40;100511.09;;;10.47;87.38
9059;BME280;4564;42.034;25.834;2023-05-08T03:13:09;100506.81;;;10.53;86.88
9059;BME280;4564;42.034;25.834;2023-05-08T03:15:41;100504.97;;;10.53;86.63
9059;BME280;4564;42.034;25.834;2023-05-08T03:18:09;100504.31;;;10.51;86.98
9059;BME280;4564;42.034;25.834;2023-05-08T03:20:38;100505.34;;;10.50;86.39
9059;BME280;4564;42.034;25.834;2023-05-08T03:23:06;100505.34;;;10.50;86.49
9059;BME280;4564;42.034;25.834;2023-05-08T03:25:33;100512.25;;;10.53;86.39
9059;BME280;4564;42.034;25.834;2023-05-08T03:28:00;100512.97;;;10.70;86.57
9059;BME280;4564;42.034;25.834;2023-05-08T03:30:30;100520.13;;;10.85;85.64
9059;BME280;4564;42.034;25.834;2023-05-08T03:32:57;100525.63;;;10.77;84.45
9059;BME280;4564;42.034;25.834;2023-05-08T03:35:25;100529.06;;;10.94;84.62
9059;BME280;4564;42.034;25.834;2023-05-08T03:37:52;100522.44;;;11.11;83.26
9059;BME280;4564;42.034;25.834;2023-05-08T03:40:19;100520.56;;;11.41;81.67
9059;BME280;4564;42.034;25.834;2023-05-08T03:42:45;100517.94;;;11.62;80.17
9059;BME280;4564;42.034;25.834;2023-05-08T03:45:13;100533.22;;;11.63;80.09
9059;BME280;4564;42.034;25.834;2023-05-08T03:47:41;100534.81;;;11.72;80.63
9059;BME280;4564;42.034;25.834;2023-05-08T03:50:08;100538.09;;;11.68;80.01
9059;BME280;4564;42.034;25.834;2023-05-08T03:52:35;100543.34;;;11.69;81.16
9059;BME280;4564;42.034;25.834;2023-05-08T03:55:03;100542.50;;;11.84;80.05
9059;BME280;4564;42.034;25.834;2023-05-08T03:57:32;100540.56;;;11.92;79.45
9059;BME280;4564;42.034;25.834;2023-05-08T04:00:02;100540.56;;;11.92;79.94
9059;BME280;4564;42.034;25.834;2023-05-08T04:02:32;100544.84;;;12.01;79.81
9059;BME280;4564;42.034;25.834;2023-05-08T04:05:04;100546.00;;;11.92;79.06
9059;BME280;4564;42.034;25.834;2023-05-08T04:07:36;100547.75;;;12.00;78.49
9059;BME280;4564;42.034;25.834;2023-05-08T04:10:05;100552.13;;;12.15;78.51
9059;BME280;4564;42.034;25.834;2023-05-08T04:12:35;100549.56;;;12.29;78.00
9059;BME280;4564;42.034;25.834;2023-05-08T04:15:04;100559.94;;;12.40;77.50
9059;BME280;4564;42.034;25.834;2023-05-08T04:17:33;100559.44;;;12.51;77.79
9059;BME280;4564;42.034;25.834;2023-05-08T04:20:02;100547.44;;;12.67;76.60
9059;BME280;4564;42.034;25.834;2023-05-08T04:22:31;100555.72;;;12.58;76.03
9059;BME280;4564;42.034;25.834;2023-05-08T04:24:58;100559.97;;;12.61;75.79
9059;BME280;4564;42.034;25.834;2023-05-08T04:27:27;100559.78;;;12.63;76.36
9059;BME280;4564;42.034;25.834;2023-05-08T04:29:54;100563.09;;;12.79;76.46
9059;BME280;4564;42.034;25.834;2023-05-08T04:32:21;100558.72;;;12.85;75.03
9059;BME280;4564;42.034;25.834;2023-05-08T04:34:49;100566.09;;;13.12;74.90
9059;BME280;4564;42.034;25.834;2023-05-08T04:37:23;100570.09;;;13.37;73.99
9059;BME280;4564;42.034;25.834;2023-05-08T04:39:51;100564.13;;;13.55;72.58
9059;BME280;4564;42.034;25.834;2023-05-08T04:42:18;100565.38;;;13.25;72.44
9059;BME280;4564;42.034;25.834;2023-05-08T04:44:44;100556.00;;;13.34;73.13
9059;BME280;4564;42.034;25.834;2023-05-08T04:47:11;100561.50;;;13.13;72.87
9059;BME280;4564;42.034;25.834;2023-05-08T04:49:38;100552.00;;;13.30;73.01
9059;BME280;4564;42.034;25.834;2023-05-08T04:52:05;100555.63;;;13.71;72.31
9059;BME280;4564;42.034;25.834;2023-05-08T04:54:31;100548.41;;;14.39;70.61
9059;BME280;4564;42.034;25.834;2023-05-08T04:56:59;100561.06;;;14.80;67.73
9059;BME280;4564;42.034;25.834;2023-05-08T04:59:26;100559.63;;;14.84;67.17
9059;BME280;4564;42.034;25.834;2023-05-08T05:01:53;100562.38;;;15.10;67.00
9059;BME280;4564;42.034;25.834;2023-05-08T05:04:20;100558.97;;;15.34;66.29
9059;BME280;4564;42.034;25.834;2023-05-08T05:06:47;100546.75;;;15.50;65.93
9059;BME280;4564;42.034;25.834;2023-05-08T05:09:13;100541.13;;;15.38;64.91
9059;BME280;4564;42.034;25.834;2023-05-08T05:11:40;100536.25;;;15.47;65.90
9059;BME280;4564;42.034;25.834;2023-05-08T05:14:08;100540.84;;;15.73;63.94
9059;BME280;4564;42.034;25.834;2023-05-08T05:16:35;100556.13;;;16.00;64.72
9059;BME280;4564;42.034;25.834;2023-05-08T05:19:02;100548.25;;;17.67;60.96
9059;BME280;4564;42.034;25.834;2023-05-08T05:21:29;100545.34;;;19.18;51.46
9059;BME280;4564;42.034;25.834;2023-05-08T05:23:55;100544.13;;;20.19;49.93
9059;BME280;4564;42.034;25.834;2023-05-08T05:26:22;100550.25;;;22.86;43.42
9059;BME280;4564;42.034;25.834;2023-05-08T05:28:48;100559.03;;;24.93;38.26
9059;BME280;4564;42.034;25.834;2023-05-08T05:31:16;100550.41;;;25.50;37.20
9059;BME280;4564;42.034;25.834;2023-05-08T05:33:43;100553.53;;;26.44;34.26
9059;BME280;4564;42.034;25.834;2023-05-08T05:36:10;100549.16;;;26.27;33.53
9059;BME280;4564;42.034;25.834;2023-05-08T05:38:37;100552.84;;;26.72;33.06
9059;BME280;4564;42.034;25.834;2023-05-08T05:41:03;100554.53;;;26.63;33.54
9059;BME280;4564;42.034;25.834;2023-05-08T05:43:31;100553.88;;;26.81;33.80
9059;BME280;4564;42.034;25.834;2023-05-08T05:46:02;100560.53;;;26.90;33.42
9059;BME280;4564;42.034;25.834;2023-05-08T05:48:30;100559.91;;;27.32;32.50
9059;BME280;4564;42.034;25.834;2023-05-08T05:50:56;100554.81;;;27.10;32.74
9059;BME280;4564;42.034;25.834;2023-05-08T05:53:23;100549.56;;;27.38;32.21
9059;BME280;4564;42.034;25.834;2023-05-08T05:55:50;100551.66;;;27.56;31.85
9059;BME280;4564;42.034;25.834;2023-05-08T05:58:17;100548.91;;;28.51;31.01
9059;BME280;4564;42.034;25.834;2023-05-08T06:00:43;100543.81;;;28.34;30.30
9059;BME280;4564;42.034;25.834;2023-05-08T06:03:10;100553.81;;;29.15;29.84
9059;BME280;4564;42.034;25.834;2023-05-08T06:05:38;100546.72;;;29.42;29.00
9059;BME280;4564;42.034;25.834;2023-05-08T06:08:05;100550.66;;;29.22;29.84
9059;BME280;4564;42.034;25.834;2023-05-08T06:10:32;100544.72;;;28.91;30.13
9059;BME280;4564;42.034;25.834;2023-05-08T06:12:59;100549.28;;;29.38;29.08
9059;BME280;4564;42.034;25.834;2023-05-08T06:15:26;100548.81;;;30.23;28.24
9059;BME280;4564;42.034;25.834;2023-05-08T06:17:52;100544.56;;;30.26;28.88
9059;BME280;4564;42.034;25.834;2023-05-08T06:20:19;100547.34;;;30.39;28.29
9059;BME280;4564;42.034;25.834;2023-05-08T06:22:47;100543.44;;;29.99;28.11
9059;BME280;4564;42.034;25.834;2023-05-08T06:25:14;100531.16;;;30.36;28.43
9059;BME280;4564;42.034;25.834;2023-05-08T06:27:41;100534.69;;;29.87;28.46
9059;BME280;4564;42.034;25.834;2023-05-08T06:30:08;100529.28;;;29.64;28.99
9059;BME280;4564;42.034;25.834;2023-05-08T06:32:34;100526.91;;;30.53;27.54
9059;BME280;4564;42.034;25.834;2023-05-08T06:35:01;100523.31;;;31.33;26.14
9059;BME280;4564;42.034;25.834;2023-05-08T06:37:28;100521.44;;;31.19;25.98
9059;BME280;4564;42.034;25.834;2023-05-08T06:39:56;100523.34;;;31.10;26.75
9059;BME280;4564;42.034;25.834;2023-05-08T06:42:23;100515.84;;;31.19;27.63
9059;BME280;4564;42.034;25.834;2023-05-08T06:44:49;100521.47;;;32.12;25.60
9059;BME280;4564;42.034;25.834;2023-05-08T06:47:17;100515.56;;;31.30;26.61
9059;BME280;4564;42.034;25.834;2023-05-08T06:49:44;100519.91;;;31.97;24.35
9059;BME280;4564;42.034;25.834;2023-05-08T06:52:10;100527.69;;;31.70;25.83
9059;BME280;4564;42.034;25.834;2023-05-08T06:54:37;100520.28;;;30.35;27.51
9059;BME280;4564;42.034;25.834;2023-05-08T06:57:06;100525.22;;;31.01;27.14
9059;BME280;4564;42.034;25.834;2023-05-08T06:59:33;100532.34;;;30.85;26.63
9059;BME280;4564;42.034;25.834;2023-05-08T07:02:00;100516.31;;;31.44;26.28
9059;BME280;4564;42.034;25.834;2023-05-08T07:04:26;100524.38;;;32.46;24.75
9059;BME280;4564;42.034;25.834;2023-05-08T07:06:53;100518.38;;;31.83;25.01
9059;BME280;4564;42.034;25.834;2023-05-08T07:09:19;100522.09;;;30.67;26.25
9059;BME280;4564;42.034;25.834;2023-05-08T07:11:46;100510.56;;;31.26;24.44
9059;BME280;4564;42.034;25.834;2023-05-08T07:14:14;100517.03;;;30.69;25.89
9059;BME280;4564;42.034;25.834;2023-05-08T07:16:41;100515.03;;;31.50;25.78
9059;BME280;4564;42.034;25.834;2023-05-08T07:19:07;100520.09;;;32.01;23.50
9059;BME280;4564;42.034;25.834;2023-05-08T07:21:34;100513.28;;;32.50;23.21
9059;BME280;4564;42.034;25.834;2023-05-08T07:24:01;100508.88;;;32.66;22.18
9059;BME280;4564;42.034;25.834;2023-05-08T07:26:27;100507.38;;;32.03;23.21
9059;BME280;4564;42.034;25.834;2023-05-08T07:28:54;100500.03;;;31.85;23.68
9059;BME280;4564;42.034;25.834;2023-05-08T07:31:22;100509.16;;;31.60;23.83
9059;BME280;4564;42.034;25.834;2023-05-08T07:33:48;100506.00;;;31.84;22.63
9059;BME280;4564;42.034;25.834;2023-05-08T07:36:15;100507.09;;;32.14;23.36
9059;BME280;4564;42.034;25.834;2023-05-08T07:38:41;100501.50;;;31.83;20.96
9059;BME280;4564;42.034;25.834;2023-05-08T07:41:08;100511.78;;;31.87;21.58
9059;BME280;4564;42.034;25.834;2023-05-08T07:43:34;100500.09;;;32.02;22.61
9059;BME280;4564;42.034;25.834;2023-05-08T07:46:01;100492.41;;;31.46;22.45
9059;BME280;4564;42.034;25.834;2023-05-08T07:48:29;100496.38;;;31.76;22.87
9059;BME280;4564;42.034;25.834;2023-05-08T07:50:56;100491.91;;;32.15;23.00
9059;BME280;4564;42.034;25.834;2023-05-08T07:53:22;100496.31;;;32.89;21.17
9059;BME280;4564;42.034;25.834;2023-05-08T07:55:49;100488.66;;;32.47;20.37
9059;BME280;4564;42.034;25.834;2023-05-08T07:58:16;100481.38;;;32.46;21.17
9059;BME280;4564;42.034;25.834;2023-05-08T08:00:42;100484.63;;;32.14;21.86
9059;BME280;4564;42.034;25.834;2023-05-08T08:03:09;100475.88;;;31.00;23.10
9059;BME280;4564;42.034;25.834;2023-05-08T08:05:37;100470.22;;;30.06;22.50
9059;BME280;4564;42.034;25.834;2023-05-08T08:08:03;100469.84;;;29.39;23.04
9059;BME280;4564;42.034;25.834;2023-05-08T08:10:30;100466.94;;;28.79;23.37
9059;BME280;4564;42.034;25.834;2023-05-08T08:12:58;100457.03;;;28.31;23.35
9059;BME280;4564;42.034;25.834;2023-05-08T08:15:25;100448.44;;;28.04;25.12
9059;BME280;4564;42.034;25.834;2023-05-08T08:17:52;100450.09;;;27.62;25.13
9059;BME280;4564;42.034;25.834;2023-05-08T08:20:19;100451.06;;;26.85;25.93
9059;BME280;4564;42.034;25.834;2023-05-08T08:22:47;100449.59;;;26.58;26.45
9059;BME280;4564;42.034;25.834;2023-05-08T08:25:14;100442.78;;;26.36;25.77
9059;BME280;4564;42.034;25.834;2023-05-08T08:27:41;100440.47;;;26.48;27.16
9059;BME280;4564;42.034;25.834;2023-05-08T08:30:08;100444.81;;;26.64;26.09
9059;BME280;4564;42.034;25.834;2023-05-08T08:32:34;100444.66;;;26.50;28.71
9059;BME280;4564;42.034;25.834;2023-05-08T08:35:01;100441.66;;;26.76;29.05
9059;BME280;4564;42.034;25.834;2023-05-08T08:37:27;100441.38;;;26.38;29.25
9059;BME280;4564;42.034;25.834;2023-05-08T08:39:55;100428.56;;;25.83;30.53
9059;BME280;4564;42.034;25.834;2023-05-08T08:42:22;100430.00;;;25.70;29.44
9059;BME280;4564;42.034;25.834;2023-05-08T08:44:48;100424.22;;;25.46;30.66
9059;BME280;4564;42.034;25.834;2023-05-08T08:47:15;100426.19;;;25.56;31.41
9059;BME280;4564;42.034;25.834;2023-05-08T08:49:46;100410.91;;;25.38;32.12
9059;BME280;4564;42.034;25.834;2023-05-08T08:52:14;100412.53;;;25.49;34.01
9059;BME280;4564;42.034;25.834;2023-05-08T08:54:44;100406.38;;;25.73;34.92
9059;BME280;4564;42.034;25.834;2023-05-08T08:57:13;100406.97;;;25.60;34.56
9059;BME280;4564;42.034;25.834;2023-05-08T08:59:41;100403.66;;;25.47;34.90
9059;BME280;4564;42.034;25.834;2023-05-08T09:02:10;100394.25;;;25.33;35.37
9059;BME280;4564;42.034;25.834;2023-05-08T09:04:39;100388.09;;;25.52;34.83
9059;BME280;4564;42.034;25.834;2023-05-08T09:07:05;100394.47;;;25.62;34.80
9059;BME280;4564;42.034;25.834;2023-05-08T09:09:33;100394.75;;;25.50;34.53
9059;BME280;4564;42.034;25.834;2023-05-08T09:12:02;100377.94;;;24.96;35.71
9059;BME280;4564;42.034;25.834;2023-05-08T09:14:30;100383.25;;;24.88;37.46
9059;BME280;4564;42.034;25.834;2023-05-08T09:16:57;100380.72;;;24.71;39.36
9059;BME280;4564;42.034;25.834;2023-05-08T09:19:24;100380.97;;;25.15;36.11
9059;BME280;4564;42.034;25.834;2023-05-08T09:21:51;100377.66;;;24.98;35.28
9059;BME280;4564;42.034;25.834;2023-05-08T09:24:18;100381.56;;;24.77;36.34
9059;BME280;4564;42.034;25.834;2023-05-08T09:26:45;100371.56;;;24.55;36.11
9059;BME280;4564;42.034;25.834;2023-05-08T09:29:12;100372.69;;;24.49;36.99
9059;BME280;4564;42.034;25.834;2023-05-08T09:31:41;100366.56;;;24.78;38.01
9059;BME280;4564;42.034;25.834;2023-05-08T09:34:08;100371.56;;;24.96;38.39
9059;BME280;4564;42.034;25.834;2023-05-08T09:36:35;100359.56;;;25.26;36.67
9059;BME280;4564;42.034;25.834;2023-05-08T09:39:03;100364.31;;;25.10;36.13
9059;BME280;4564;42.034;25.834;2023-05-08T09:41:29;100368.22;;;24.89;37.07
9059;BME280;4564;42.034;25.834;2023-05-08T09:43:59;100359.09;;;24.88;39.01
9059;BME280;4564;42.034;25.834;2023-05-08T09:46:26;100355.66;;;25.22;37.53
9059;BME280;4564;42.034;25.834;2023-05-08T09:48:54;100356.41;;;25.53;37.33
9059;BME280;4564;42.034;25.834;2023-05-08T09:51:22;100362.84;;;25.33;36.29
9059;BME280;4564;42.034;25.834;2023-05-08T09:53:49;100349.69;;;25.54;37.67
9059;BME280;4564;42.034;25.834;2023-05-08T09:56:27;100352.50;;;25.48;35.79
9059;BME280;4564;42.034;25.834;2023-05-08T09:58:54;100348.16;;;25.22;36.30
9059;BME280;4564;42.034;25.834;2023-05-08T10:01:27;100343.72;;;25.16;36.60
9059;BME280;4564;42.034;25.834;2023-05-08T10:03:56;100335.47;;;24.76;36.67
9059;BME280;4564;42.034;25.834;2023-05-08T10:06:22;100335.75;;;24.69;37.42
9059;BME280;4564;42.034;25.834;2023-05-08T10:08:49;100329.38;;;24.94;37.53
9059;BME280;4564;42.034;25.834;2023-05-08T10:11:31;100326.75;;;25.28;37.30
9059;BME280;4564;42.034;25.834;2023-05-08T10:13:57;100320.59;;;25.41;36.96
9059;BME280;4564;42.034;25.834;2023-05-08T10:16:25;100320.88;;;25.34;37.06
9059;BME280;4564;42.034;25.834;2023-05-08T10:18:54;100311.53;;;25.05;38.30
9059;BME280;4564;42.034;25.834;2023-05-08T10:21:27;100314.25;;;25.25;39.16
9059;BME280;4564;42.034;25.834;2023-05-08T10:23:54;100312.56;;;25.34;37.52
9059;BME280;4564;42.034;25.834;2023-05-08T10:26:24;100283.69;;;25.25;38.44
9059;BME280;4564;42.034;25.834;2023-05-08T10:28:54;100300.84;;;25.42;38.16
9059;BME280;4564;42.034;25.834;2023-05-08T10:31:21;100308.78;;;25.10;38.04
9059;BME280;4564;42.034;25.834;2023-05-08T10:33:50;100302.16;;;24.91;38.61
9059;BME280;4564;42.034;25.834;2023-05-08T10:36:20;100305.50;;;24.88;38.22
9059;BME280;4564;42.034;25.834;2023-05-08T10:38:48;100299.91;;;24.73;40.24
9059;BME280;4564;42.034;25.834;2023-05-08T10:41:15;100289.66;;;24.93;40.29
9059;BME280;4564;42.034;25.834;2023-05-08T10:43:42;100290.47;;;24.84;39.83
9059;BME280;4564;42.034;25.834;2023-05-08T10:46:10;100289.94;;;24.82;40.60
9059;BME280;4564;42.034;25.834;2023-05-08T10:48:43;100282.41;;;24.87;39.54
9059;BME280;4564;42.034;25.834;2023-05-08T10:51:12;100278.31;;;24.59;40.28
9059;BME280;4564;42.034;25.834;2023-05-08T10:53:41;100283.31;;;24.42;41.37
9059;BME280;4564;42.034;25.834;2023-05-08T10:56:10;100271.09;;;24.53;40.56
9059;BME280;4564;42.034;25.834;2023-05-08T10:58:37;100281.09;;;24.44;40.63
9059;BME280;4564;42.034;25.834;2023-05-08T11:01:10;100275.28;;;24.31;40.80
9059;BME280;4564;42.034;25.834;2023-05-08T11:03:38;100273.88;;;24.13;41.83
9059;BME280;4564;42.034;25.834;2023-05-08T11:06:05;100276.09;;;24.36;41.99
9059;BME280;4564;42.034;25.834;2023-05-08T11:08:32;100271.13;;;24.23;41.97
9059;BME280;4564;42.034;25.834;2023-05-08T11:11:01;100268.34;;;24.33;42.06
9059;BME280;4564;42.034;25.834;2023-05-08T11:13:32;100266.69;;;24.22;43.09
9059;BME280;4564;42.034;25.834;2023-05-08T11:15:59;100264.47;;;24.39;41.15
9059;BME280;4564;42.034;25.834;2023-05-08T11:18:26;100256.69;;;24.31;41.72
9059;BME280;4564;42.034;25.834;2023-05-08T11:20:54;100252.22;;;24.15;41.75
9059;BME280;4564;42.034;25.834;2023-05-08T11:23:21;100253.06;;;24.36;42.14
9059;BME280;4564;42.034;25.834;2023-05-08T11:28:24;100243.91;;;24.40;42.19
9059;BME280;4564;42.034;25.834;2023-05-08T11:30:53;100253.38;;;24.19;40.84
9059;BME280;4564;42.034;25.834;2023-05-08T11:33:20;100258.09;;;24.34;42.82
9059;BME280;4564;42.034;25.834;2023-05-08T11:35:48;100251.09;;;24.51;42.22
9059;BME280;4564;42.034;25.834;2023-05-08T11:38:16;100242.78;;;24.56;42.16
9059;BME280;4564;42.034;25.834;2023-05-08T11:40:43;100248.59;;;24.70;41.08
9059;BME280;4564;42.034;25.834;2023-05-08T11:46:15;100239.44;;;24.70;42.46
9059;BME280;4564;42.034;25.834;2023-05-08T11:48:42;100238.66;;;24.39;41.33
9059;BME280;4564;42.034;25.834;2023-05-08T11:51:10;100238.38;;;24.35;41.59
9059;BME280;4564;42.034;25.834;2023-05-08T11:53:37;100233.66;;;24.31;41.30
9059;BME280;4564;42.034;25.834;2023-05-08T11:56:05;100227.28;;;24.50;41.73
9059;BME280;4564;42.034;25.834;2023-05-08T11:58:32;100181.53;;;24.33;41.67
9059;BME280;4564;42.034;25.834;2023-05-08T12:00:59;100216.66;;;24.62;41.18
9059;BME280;4564;42.034;25.834;2023-05-08T12:03:27;100215.03;;;24.46;40.87
9059;BME280;4564;42.034;25.834;2023-05-08T12:05:54;100200.94;;;24.38;42.27
9059;BME280;4564;42.034;25.834;2023-05-08T12:08:21;100206.47;;;24.43;41.74
9059;BME280;4564;42.034;25.834;2023-05-08T12:10:48;100199.78;;;24.49;41.87
9059;BME280;4564;42.034;25.834;2023-05-08T12:13:16;100204.50;;;24.48;40.91
9059;BME280;4564;42.034;25.834;2023-05-08T12:15:43;100202.28;;;24.55;41.28
9059;BME280;4564;42.034;25.834;2023-05-08T12:18:10;100192.00;;;24.56;40.88
9059;BME280;4564;42.034;25.834;2023-05-08T12:20:38;100191.97;;;24.66;41.79
9059;BME280;4564;42.034;25.834;2023-05-08T12:23:05;100180.03;;;24.71;40.70
9059;BME280;4564;42.034;25.834;2023-05-08T12:25:33;100189.22;;;24.61;42.27
9059;BME280;4564;42.034;25.834;2023-05-08T12:27:59;100180.09;;;24.55;41.39
9059;BME280;4564;42.034;25.834;2023-05-08T12:30:26;100181.19;;;24.54;42.11
9059;BME280;4564;42.034;25.834;2023-05-08T12:32:52;100180.66;;;24.42;41.97
9059;BME280;4564;42.034;25.834;2023-05-08T12:35:19;100174.59;;;24.25;40.98
9059;BME280;4564;42.034;25.834;2023-05-08T12:37:49;100167.63;;;24.38;41.46
9059;BME280;4564;42.034;25.834;2023-05-08T12:40:23;100168.97;;;24.55;41.34
9059;BME280;4564;42.034;25.834;2023-05-08T12:42:50;100158.97;;;24.59;40.81
9059;BME280;4564;42.034;25.834;2023-05-08T12:45:17;100150.38;;;24.61;41.05
9059;BME280;4564;42.034;25.834;2023-05-08T12:47:47;100157.88;;;24.55;41.13
9059;BME280;4564;42.034;25.834;2023-05-08T12:50:14;100160.63;;;24.60;41.62
9059;BME280;4564;42.034;25.834;2023-05-08T12:52:41;100156.09;;;24.80;40.38
9059;BME280;4564;42.034;25.834;2023-05-08T12:55:20;100155.56;;;24.88;40.55
9059;BME280;4564;42.034;25.834;2023-05-08T12:57:47;100151.94;;;24.82;40.74
9059;BME280;4564;42.034;25.834;2023-05-08T13:00:14;100155.00;;;24.81;41.02
9059;BME280;4564;42.034;25.834;2023-05-08T13:02:49;100153.31;;;24.85;40.33
9059;BME280;4564;42.034;25.834;2023-05-08T13:05:17;100158.66;;;24.66;39.99
9059;BME280;4564;42.034;25.834;2023-05-08T13:07:44;100165.13;;;24.41;38.94
9059;BME280;4564;42.034;25.834;2023-05-08T13:10:10;100160.69;;;24.40;38.94
9059;BME280;4564;42.034;25.834;2023-05-08T13:12:38;100156.53;;;24.38;39.17
9059;BME280;4564;42.034;25.834;2023-05-08T13:15:05;100155.66;;;24.47;39.33